Montmorenci, IN (47962)

2:57 AM EST on January 20, 2017 (GMT -0500)
MAU197 | | Change Station
Active Advisory: Flood Warning

Elev 665 ft 40.44 °N, 87.03 °W | Updated 41 minutes ago

Rain
Rain
43.0 °F
Feels Like 43 °F
N
0.0
Wind Variable Wind from ENE
Gusts 0.0 mph

Today
High -- | Low -- °F
--% Chance of Precip.
Yesterday
High -- | Low -- °F
Precip. -- in
Pressure 29.61 in
Visibility 5.0 miles
Clouds Overcast 600 ft
Windchill 43 °F
Dew Point 42 °F
Humidity 96%
Rainfall 0.74 in
Snow Depth Not available.
8:06 AM 5:52 PM
Last Quarter, 46% visible
METAR KLAF 200754Z AUTO 06005KT 5SM -RA BR OVC006 06/06 A2960 RMK AO2 SLP025 P0008 T00610061
Pressure 29.61 in
Visibility 5.0 miles
Clouds Overcast 600 ft
Windchill 43 °F
Dew Point 42 °F
Humidity 96%
Rainfall 0.74 in
Snow Depth Not available.
8:06 AM 5:52 PM
Last Quarter, 46% visible
METAR KLAF 200754Z AUTO 06005KT 5SM -RA BR OVC006 06/06 A2960 RMK AO2 SLP025 P0008 T00610061

Get Your Daily Forecast Email!

Thanks for signing up!

Be on the lookout for a verification email in your inbox.

You'll start receiving the daily forecast at 8 AM.

×

10-Day Weather Forecast

Almanac

Astronomy

Jan. 20, 2017 Rise Set
Actual Time
Civil Twilight
Nautical Twilight
Astronomical Twilight
Moon
Length of Visible Light
Length of Day
Tomorrow will be .
, % of the Moon is Illuminated

Today's Extremes

State Highs State Lows

Community

WunderPhotos

Upload Photos

1,962,540 photos uploaded!

WunderBlog® & News

Nearby

Air Quality

  Air Quality AQ Index Pollutant
Not available.

Snow Depth

Station Depth Elevation

Earthquake Activity

City Distance Mag. Time & Date
Minimum magnitude displayed is 2.5.

Coastal Water Temperatures

Place Temperature

Stations

Nearby Weather Stations

Station Location Temp. Windchill Dew Point Humidity Wind Precip. Elev Updated Type
                   

Watches & Warnings

Flood Warning
Issued: 2:39 AM GMT Jan. 20, 2017 – National Weather Service

The Flood Warning continues for
the Wabash River at Lafayette.
* Until further notice.
* At 9:01 PM Thursday the stage was 14.5 feet.
* Flood stage is 11.0 feet.
* Minor flooding is occurring and minor flooding is forecast.
* Forecast... the river will continue rising to near 16.4 feet by
Saturday early afternoon then begin falling.
* At 16.0 feet... lowland flooding is in progress. Flood waters near
sr 225 between old sr 25 and battleground. Warren CR 350 N near
Black Rock preserve and Tippecanoe CR 950 W in the Wabash bottoms,
janssen tract area may be impassable. Fort ouiatenon grounds begin
to flood. Flooding at the Grandville public access site.


Lat... Lon 4056 8673 4048 8688 4040 8709 4033 8709
      4040 8688 4054 8670